Time;durP1;ratioP1;P1;durP2;ratioP2;P2;SDS_P1;SDS_P2;PMS_P1;PMS_P2;Temp;Humidity;BMP_temperature;BMP_pressure;BME280_temperature;BME280_humidity;BME280_pressure;Samples;Min_cycle;Max_cycle;Signal;HPM_P1;HPM_P2
2022/11/07 00:02:17;;;;;;;6.65;3.92;;;;;;;9.87;100.00;100095.59;5055989;28;20208;-76
2022/11/07 00:04:44;;;;;;;7.53;3.22;;;;;;;9.88;100.00;100096.44;5056211;28;20292;-75
2022/11/07 00:07:11;;;;;;;6.60;3.70;;;;;;;9.93;100.00;100099.81;5057181;28;20221;-76
2022/11/07 00:09:37;;;;;;;4.22;3.08;;;;;;;9.88;100.00;100096.44;5042708;28;20194;-75
2022/11/07 00:12:06;;;;;;;5.55;3.30;;;;;;;9.88;100.00;100100.03;5056605;28;20659;-75
2022/11/07 00:14:33;;;;;;;5.78;2.80;;;;;;;9.92;100.00;100106.13;5053319;28;20210;-75
2022/11/07 00:16:59;;;;;;;5.18;3.45;;;;;;;9.88;100.00;100107.22;5055332;28;20300;-75
2022/11/07 00:19:26;;;;;;;5.00;3.60;;;;;;;9.81;100.00;100099.44;5053442;28;20202;-75
2022/11/07 00:21:52;;;;;;;4.25;3.40;;;;;;;9.88;100.00;100089.28;5062730;28;20223;-73
2022/11/07 00:24:19;;;;;;;4.93;3.25;;;;;;;9.93;100.00;100089.06;5062095;28;20198;-74
2022/11/07 00:26:46;;;;;;;5.30;3.15;;;;;;;9.94;100.00;100101.56;5056581;28;20236;-75
2022/11/07 00:29:15;;;;;;;4.43;3.75;;;;;;;9.98;100.00;100105.84;5053594;28;20197;-75
2022/11/07 00:31:42;;;;;;;5.80;3.00;;;;;;;9.90;100.00;100110.69;5049408;28;20216;-75
2022/11/07 00:34:08;;;;;;;7.75;4.07;;;;;;;9.91;100.00;100113.31;5051383;28;20724;-74
2022/11/07 00:36:35;;;;;;;4.65;3.95;;;;;;;9.93;100.00;100113.28;5045909;28;20221;-74
2022/11/07 00:39:03;;;;;;;6.60;3.45;;;;;;;9.93;100.00;100129.41;5054187;28;20193;-76
2022/11/07 00:41:29;;;;;;;5.30;4.28;;;;;;;9.95;100.00;100123.00;5055512;28;20208;-74
2022/11/07 00:43:56;;;;;;;4.43;3.97;;;;;;;10.02;100.00;100127.16;5051886;28;20209;-75
2022/11/07 00:46:24;;;;;;;4.30;3.47;;;;;;;10.00;100.00;100133.53;5047754;28;20220;-74
2022/11/07 00:48:51;;;;;;;5.57;3.72;;;;;;;9.99;100.00;100127.31;5054832;28;20197;-75
2022/11/07 00:51:20;;;;;;;4.95;3.40;;;;;;;10.03;100.00;100138.78;5052435;28;20193;-75
2022/11/07 00:53:47;;;;;;;4.50;2.90;;;;;;;10.12;100.00;100135.66;5044322;28;20285;-74
2022/11/07 00:56:15;;;;;;;3.90;3.35;;;;;;;10.08;100.00;100138.56;5053723;28;20956;-75
2022/11/07 00:58:43;;;;;;;5.07;3.72;;;;;;;10.09;100.00;100132.25;5048644;28;20224;-74
2022/11/07 01:01:11;;;;;;;5.75;3.65;;;;;;;10.13;100.00;100133.81;5054255;28;20677;-73
2022/11/07 01:06:24;;;;;;;5.60;3.58;;;;;;;10.21;100.00;100148.66;5046543;28;20244;-74
2022/11/07 01:08:50;;;;;;;7.38;3.70;;;;;;;10.17;100.00;100141.66;5050983;28;20690;-74
2022/11/07 01:11:17;;;;;;;4.07;2.95;;;;;;;10.15;100.00;100148.97;5045330;28;20212;-74
2022/11/07 01:13:43;;;;;;;4.28;3.60;;;;;;;10.15;100.00;100146.28;5049672;28;20320;-73
2022/11/07 01:16:11;;;;;;;5.13;3.70;;;;;;;10.15;100.00;100153.44;5043868;28;20217;-73
2022/11/07 01:18:39;;;;;;;6.28;3.60;;;;;;;10.20;100.00;100156.81;5052093;28;20764;-74
2022/11/07 01:21:07;;;;;;;6.05;4.00;;;;;;;10.32;100.00;100147.31;5059173;28;20260;-74
2022/11/07 01:23:33;;;;;;;4.90;4.03;;;;;;;10.29;100.00;100153.72;5065412;28;20246;-75
2022/11/07 01:26:04;;;;;;;4.32;3.50;;;;;;;10.25;100.00;100162.00;5066721;28;20231;-74
2022/11/07 01:28:31;;;;;;;3.53;3.03;;;;;;;10.44;100.00;100158.34;5050100;28;20197;-75
2022/11/07 01:30:57;;;;;;;6.28;3.60;;;;;;;10.29;100.00;100161.81;5053117;28;20190;-74
2022/11/07 01:33:24;;;;;;;5.88;3.60;;;;;;;10.39;100.00;100154.16;5043831;28;20198;-74
2022/11/07 01:35:52;;;;;;;4.63;3.50;;;;;;;10.33;100.00;100147.22;5053612;28;20220;-75
2022/11/07 01:38:18;;;;;;;4.88;3.70;;;;;;;10.31;100.00;100149.13;5050591;28;20197;-76
2022/11/07 01:43:45;;;;;;;7.22;3.88;;;;;;;10.23;100.00;100152.16;5043392;28;20584;-75
2022/11/07 01:48:41;;;;;;;4.80;4.07;;;;;;;10.20;100.00;100152.31;5025126;28;20210;-74
2022/11/07 01:51:11;;;;;;;4.60;3.70;;;;;;;10.23;100.00;100146.75;5030599;28;20202;-74
2022/11/07 01:53:38;;;;;;;7.90;4.65;;;;;;;10.25;100.00;100152.09;5029318;28;20216;-75
2022/11/07 01:56:09;;;;;;;5.35;4.05;;;;;;;10.22;100.00;100141.44;5030034;28;20281;-75
2022/11/07 01:58:36;;;;;;;5.80;4.05;;;;;;;10.12;100.00;100150.91;5019668;28;20237;-74
2022/11/07 02:01:03;;;;;;;4.80;4.00;;;;;;;10.17;100.00;100141.66;5022413;28;20229;-73
2022/11/07 02:03:30;;;;;;;5.88;3.40;;;;;;;10.21;100.00;100145.97;5032050;28;20601;-75
2022/11/07 02:06:03;;;;;;;5.88;4.00;;;;;;;10.21;100.00;100145.97;5032971;28;20194;-75
2022/11/07 02:08:34;;;;;;;5.05;3.75;;;;;;;10.11;100.00;100133.91;5032421;28;20226;-74
2022/11/07 02:11:02;;;;;;;5.07;3.90;;;;;;;9.96;100.00;100142.69;5032595;28;20721;-75
2022/11/07 02:13:31;;;;;;;5.53;4.32;;;;;;;9.85;100.00;100153.09;5032821;28;20576;-75
2022/11/07 02:16:01;;;;;;;7.30;4.30;;;;;;;9.90;100.00;100151.06;5026818;28;20194;-74
2022/11/07 02:18:29;;;;;;;6.10;4.15;;;;;;;9.92;100.00;100146.47;5032419;28;20222;-75
2022/11/07 02:21:00;;;;;;;5.80;4.05;;;;;;;9.88;100.00;100144.88;5029501;28;20226;-74
2022/11/07 02:23:36;;;;;;;10.02;3.75;;;;;;;9.88;100.00;100129.63;5036272;28;20204;-75
2022/11/07 02:26:04;;;;;;;4.90;3.97;;;;;;;9.89;100.00;100135.88;5030500;28;20255;-74
2022/11/07 02:28:32;;;;;;;5.18;4.50;;;;;;;9.78;100.00;100145.28;5035615;28;20226;-75
2022/11/07 02:30:59;;;;;;;4.88;3.90;;;;;;;9.77;100.00;100138.19;5032257;28;20198;-75
2022/11/07 02:33:25;;;;;;;7.00;4.47;;;;;;;9.86;100.00;100144.06;5027817;28;20198;-73
2022/11/07 02:35:53;;;;;;;5.45;4.15;;;;;;;9.81;100.00;100139.78;5034393;28;20204;-75
2022/11/07 02:38:22;;;;;;;6.57;4.07;;;;;;;9.87;100.00;100148.50;5033968;28;20213;-73
2022/11/07 02:40:54;;;;;;;7.35;4.30;;;;;;;9.78;100.00;100145.28;5030812;28;20194;-75
2022/11/07 02:43:25;;;;;;;7.38;5.22;;;;;;;9.90;100.00;100151.91;5036172;28;20526;-74
2022/11/07 02:45:53;;;;;;;6.97;4.68;;;;;;;9.93;100.00;100148.25;5034615;28;20194;-74
2022/11/07 02:48:20;;;;;;;7.30;5.07;;;;;;;9.94;100.00;100147.28;5035006;28;20236;-74
2022/11/07 02:50:47;;;;;;;4.95;3.85;;;;;;;9.96;100.00;100145.38;5036532;28;20683;-75
2022/11/07 02:53:13;;;;;;;6.78;4.40;;;;;;;9.98;100.00;100143.50;5032121;28;20194;-75
2022/11/07 02:55:40;;;;;;;5.25;4.30;;;;;;;9.93;100.00;100135.66;5037109;28;20202;-74
2022/11/07 02:58:06;;;;;;;6.53;5.03;;;;;;;9.96;100.00;100135.50;5036513;28;20214;-74
2022/11/07 03:00:34;;;;;;;5.45;4.60;;;;;;;9.94;100.00;100131.13;5030960;28;20651;-74
2022/11/07 03:03:01;;;;;;;8.68;4.85;;;;;;;9.65;100.00;100144.09;5037520;28;20297;-74
2022/11/07 03:05:27;;;;;;;9.80;5.05;;;;;;;9.68;100.00;100138.59;5040368;28;20737;-76
2022/11/07 03:07:54;;;;;;;7.80;4.60;;;;;;;9.70;100.00;100144.78;5039994;28;20236;-75
2022/11/07 03:10:20;;;;;;;9.68;5.32;;;;;;;9.73;100.00;100147.34;5039953;28;20206;-74
2022/11/07 03:12:47;;;;;;;6.45;5.07;;;;;;;9.72;100.00;100160.84;5040634;28;20198;-75
2022/11/07 03:15:14;;;;;;;8.10;5.30;;;;;;;9.75;100.00;100150.81;5035700;28;20758;-74
2022/11/07 03:17:42;;;;;;;6.85;5.07;;;;;;;9.79;100.00;100155.13;5036265;28;20240;-74
2022/11/07 03:20:11;;;;;;;6.35;4.82;;;;;;;9.75;100.00;100155.34;5036632;28;20226;-76
2022/11/07 03:22:37;;;;;;;6.35;5.22;;;;;;;9.80;100.00;100156.00;5026285;28;20259;-75
2022/11/07 03:25:05;;;;;;;6.90;5.57;;;;;;;9.87;100.00;100156.59;5045487;28;20265;-74
2022/11/07 03:27:31;;;;;;;6.38;4.47;;;;;;;9.76;100.00;100168.69;5047553;28;20222;-74
2022/11/07 03:29:58;;;;;;;9.18;5.72;;;;;;;9.79;100.00;100162.28;5042662;28;20201;-74
2022/11/07 03:32:24;;;;;;;5.25;4.75;;;;;;;9.77;100.00;100169.59;5044694;28;20343;-73
2022/11/07 03:34:54;;;;;;;8.00;5.85;;;;;;;9.81;100.00;100163.09;5043949;28;20204;-74
2022/11/07 03:37:21;;;;;;;5.10;4.57;;;;;;;9.81;100.00;100161.31;5037858;28;20218;-74
2022/11/07 03:39:47;;;;;;;8.27;4.82;;;;;;;9.78;100.00;100166.81;5035535;28;20200;-73
2022/11/07 03:42:14;;;;;;;6.63;5.00;;;;;;;9.88;100.00;100156.53;5036453;28;20546;-75
2022/11/07 03:44:42;;;;;;;9.43;5.60;;;;;;;9.86;100.00;100168.28;5035143;28;20194;-73
2022/11/07 03:47:08;;;;;;;8.18;5.75;;;;;;;9.88;100.00;100164.59;5036356;28;20235;-74
2022/11/07 03:49:35;;;;;;;7.32;4.60;;;;;;;9.98;100.00;100167.72;5027777;28;20202;-73
2022/11/07 03:52:03;;;;;;;8.70;5.05;;;;;;;9.98;100.00;100168.59;5038620;28;20309;-73
2022/11/07 03:54:29;;;;;;;6.38;5.38;;;;;;;10.02;100.00;100166.63;5035987;28;20206;-74
2022/11/07 03:56:56;;;;;;;8.70;5.18;;;;;;;10.07;100.00;100172.66;5033838;28;20282;-74
2022/11/07 03:59:22;;;;;;;6.97;5.15;;;;;;;10.06;100.00;100165.53;5033946;28;20289;-75
2022/11/07 04:01:49;;;;;;;9.73;5.00;;;;;;;10.13;100.00;100177.78;5040145;28;20511;-75
2022/11/07 04:04:15;;;;;;;8.13;4.63;;;;;;;10.17;100.00;100167.72;5046759;28;20209;-73
2022/11/07 04:06:42;;;;;;;8.63;5.00;;;;;;;10.16;100.00;100172.22;5045270;28;20221;-74
2022/11/07 04:09:10;;;;;;;5.35;4.25;;;;;;;10.13;100.00;100174.19;5042701;28;20301;-73
2022/11/07 04:17:21;;;;;;;7.18;4.80;;;;;;;10.14;100.00;100166.03;5033986;28;20273;-75
2022/11/07 04:19:48;;;;;;;8.60;4.70;;;;;;;10.18;100.00;100173.03;5033708;28;20202;-73
2022/11/07 04:22:16;;;;;;;7.60;4.28;;;;;;;10.19;100.00;100181.97;5036965;28;20198;-73
2022/11/07 04:24:44;;;;;;;9.85;4.50;;;;;;;10.26;100.00;100171.78;5035678;28;20201;-73
2022/11/07 04:29:55;;;;;;;7.57;4.57;;;;;;;10.42;100.00;100189.88;5025853;28;20213;-74
2022/11/07 04:32:23;;;;;;;7.25;4.60;;;;;;;10.42;100.00;100176.41;5030253;28;20231;-74
2022/11/07 04:34:50;;;;;;;8.25;4.03;;;;;;;10.47;100.00;100168.13;5029914;28;20198;-74
2022/11/07 04:37:17;;;;;;;10.30;4.47;;;;;;;10.53;100.00;100175.00;5034192;28;20218;-73
2022/11/07 04:39:45;;;;;;;5.60;3.83;;;;;;;10.60;100.00;100171.91;5028688;28;20202;-74
2022/11/07 04:42:11;;;;;;;6.20;3.83;;;;;;;10.71;100.00;100184.00;5034559;28;20194;-73
2022/11/07 04:44:38;;;;;;;10.25;4.45;;;;;;;10.71;100.00;100176.78;5032771;28;20212;-74
2022/11/07 04:47:04;;;;;;;5.70;3.40;;;;;;;10.73;100.00;100180.28;5029854;28;20226;-74
2022/11/07 04:49:31;;;;;;;7.13;4.00;;;;;;;10.74;100.00;100173.97;5033852;28;20198;-73
2022/11/07 04:51:57;;;;;;;6.40;4.32;;;;;;;10.75;100.00;100174.81;5034822;28;20655;-73
2022/11/07 04:54:24;;;;;;;7.72;4.35;;;;;;;10.73;100.00;100172.19;5036598;28;20205;-74
2022/11/07 04:56:52;;;;;;;7.85;3.70;;;;;;;10.80;100.00;100180.84;5033406;28;20620;-72
2022/11/07 04:59:18;;;;;;;6.28;3.58;;;;;;;10.85;100.00;100177.00;5036751;28;20194;-73
2022/11/07 05:01:45;;;;;;;7.68;3.67;;;;;;;10.87;100.00;100168.81;5035606;28;20214;-74
2022/11/07 05:04:11;;;;;;;8.65;4.40;;;;;;;10.95;100.00;100177.41;5035868;28;20225;-74
2022/11/07 05:06:38;;;;;;;4.63;3.28;;;;;;;10.96;100.00;100184.50;5030521;28;20229;-74
2022/11/07 05:09:05;;;;;;;7.18;3.67;;;;;;;11.04;100.00;100187.72;5027454;28;20226;-74
2022/11/07 05:11:31;;;;;;;8.40;3.70;;;;;;;11.03;100.00;100177.91;5033602;28;20201;-73
2022/11/07 05:13:59;;;;;;;5.43;3.30;;;;;;;11.04;100.00;100187.72;5034622;28;20198;-75
2022/11/07 05:16:26;;;;;;;11.95;4.30;;;;;;;11.10;100.00;100185.63;5034777;28;20240;-74
2022/11/07 05:18:52;;;;;;;7.07;3.45;;;;;;;11.05;100.00;100181.34;5034348;28;20594;-75
2022/11/07 05:21:19;;;;;;;8.55;3.60;;;;;;;11.07;100.00;100184.84;5033024;28;20292;-73
2022/11/07 05:23:45;;;;;;;6.20;3.70;;;;;;;11.14;100.00;100190.78;5033189;28;20193;-75
2022/11/07 05:26:12;;;;;;;12.13;5.50;;;;;;;11.13;100.00;100182.81;5033141;28;20205;-75
2022/11/07 05:28:38;;;;;;;5.13;3.30;;;;;;;11.19;100.00;100179.78;5033981;28;20698;-74
2022/11/07 05:31:08;;;;;;;6.85;4.00;;;;;;;11.21;100.00;100183.28;5029140;28;20313;-75
2022/11/07 05:33:35;;;;;;;6.65;3.40;;;;;;;11.24;100.00;100192.09;5020466;28;20222;-74
2022/11/07 05:36:12;;;;;;;8.00;3.90;;;;;;;11.28;100.00;100184.69;5034682;28;20252;-75
2022/11/07 05:38:41;;;;;;;6.30;3.30;;;;;;;11.24;100.00;100188.53;5032152;28;20582;-75
2022/11/07 05:41:09;;;;;;;4.32;3.40;;;;;;;11.23;100.00;100178.69;5030729;28;20907;-75
2022/11/07 05:43:36;;;;;;;7.82;3.75;;;;;;;11.20;100.00;100174.31;5034329;28;20213;-75
2022/11/07 05:46:03;;;;;;;7.90;3.60;;;;;;;11.17;100.00;100170.91;5033384;28;20206;-74
2022/11/07 05:48:31;;;;;;;5.90;3.15;;;;;;;11.13;100.00;100172.03;5033230;28;20703;-74
2022/11/07 05:50:58;;;;;;;6.30;3.40;;;;;;;11.09;100.00;100181.22;5032876;28;20206;-74
2022/11/07 05:53:26;;;;;;;6.00;3.47;;;;;;;11.08;100.00;100193.81;5029945;28;20219;-74
2022/11/07 05:55:53;;;;;;;6.28;3.25;;;;;;;11.06;100.00;100191.19;5039639;28;20204;-73
2022/11/07 05:58:20;;;;;;;4.80;3.55;;;;;;;11.03;100.00;100196.75;5044742;28;20225;-75
2022/11/07 06:00:48;;;;;;;7.70;3.97;;;;;;;11.06;100.00;100196.59;5050470;28;20202;-73
2022/11/07 06:03:15;;;;;;;8.40;3.28;;;;;;;11.00;100.00;100206.81;5042191;28;20703;-74
2022/11/07 06:05:43;;;;;;;5.95;3.38;;;;;;;10.99;100.00;100210.44;5038940;28;20388;-73
2022/11/07 06:08:12;;;;;;;7.10;3.20;;;;;;;11.01;100.00;100206.75;5037321;28;20248;-74
2022/11/07 06:10:41;;;;;;;7.20;3.17;;;;;;;11.05;100.00;100211.00;5034400;28;20283;-74
2022/11/07 06:13:10;;;;;;;4.28;2.85;;;;;;;11.10;100.00;100209.91;5035516;28;20233;-73
2022/11/07 06:15:38;;;;;;;8.02;2.72;;;;;;;11.11;100.00;100208.97;5020243;28;20198;-74
2022/11/07 06:18:07;;;;;;;6.28;3.83;;;;;;;11.14;100.00;100211.50;5035359;28;20300;-73
2022/11/07 06:20:34;;;;;;;7.72;3.50;;;;;;;11.21;100.00;100210.22;5031418;28;20222;-74
2022/11/07 06:23:03;;;;;;;8.90;3.55;;;;;;;11.20;100.00;100216.59;5033577;28;20194;-73
2022/11/07 06:25:31;;;;;;;7.75;3.63;;;;;;;11.21;100.00;100215.63;5034940;28;20190;-73
2022/11/07 06:27:59;;;;;;;6.47;3.03;;;;;;;11.27;100.00;100216.19;5036571;28;20312;-74
2022/11/07 06:30:26;;;;;;;6.50;3.17;;;;;;;11.24;100.00;100224.44;5032513;28;20661;-76
2022/11/07 06:32:52;;;;;;;5.22;3.38;;;;;;;11.32;100.00;100229.41;5037138;28;20221;-74
2022/11/07 06:35:19;;;;;;;6.18;3.13;;;;;;;11.26;100.00;100229.72;5038687;28;20206;-74
2022/11/07 06:37:45;;;;;;;4.70;3.40;;;;;;;11.31;100.00;100233.09;5038543;28;20229;-74
2022/11/07 06:40:13;;;;;;;4.40;2.90;;;;;;;11.38;100.00;100229.13;5037690;28;20300;-74
2022/11/07 06:42:40;;;;;;;8.20;3.65;;;;;;;11.34;100.00;100222.13;5036680;28;20224;-73
2022/11/07 06:45:07;;;;;;;7.85;3.30;;;;;;;11.35;100.00;100228.38;5037686;28;20208;-74
2022/11/07 06:47:34;;;;;;;10.90;3.35;;;;;;;11.36;100.00;100235.53;5039122;28;20224;-74
2022/11/07 06:50:00;;;;;;;7.63;3.15;;;;;;;11.39;100.00;100224.59;5039468;28;20415;-75
2022/11/07 06:52:28;;;;;;;5.60;3.53;;;;;;;11.40;100.00;100240.69;5038945;28;20679;-74
2022/11/07 06:54:54;;;;;;;4.45;3.17;;;;;;;11.47;100.00;100234.03;5038051;28;20629;-74
2022/11/07 06:57:22;;;;;;;7.82;3.15;;;;;;;11.50;100.00;100241.09;5039349;28;20218;-74
2022/11/07 06:59:49;;;;;;;6.70;3.40;;;;;;;11.50;100.00;100241.09;5037969;28;20201;-74
2022/11/07 07:02:15;;;;;;;6.35;3.60;;;;;;;11.55;100.00;100246.25;5039238;28;20221;-75
2022/11/07 07:04:42;;;;;;;8.13;3.58;;;;;;;11.54;100.00;100239.97;5039474;28;20232;-74
2022/11/07 07:07:10;;;;;;;6.75;3.30;;;;;;;11.56;100.00;100253.41;5038285;28;20221;-76
2022/11/07 07:09:36;;;;;;;4.53;2.90;;;;;;;11.58;100.00;100248.78;5037531;28;20232;-75
2022/11/07 07:12:03;;;;;;;5.65;3.42;;;;;;;11.61;100.00;100267.50;5037106;28;20266;-73
2022/11/07 07:14:31;;;;;;;4.07;2.88;;;;;;;11.60;100.00;100257.66;5038500;28;20593;-74
2022/11/07 07:16:58;;;;;;;7.00;2.70;;;;;;;11.65;100.00;100267.28;5037252;28;20233;-74
2022/11/07 07:19:25;;;;;;;4.53;2.55;;;;;;;11.67;100.00;100261.81;5036822;28;20575;-75
2022/11/07 07:21:51;;;;;;;4.68;2.58;;;;;;;11.71;100.00;100270.59;5037393;28;20683;-74
2022/11/07 07:24:18;;;;;;;5.40;2.70;;;;;;;11.73;100.00;100266.84;5037961;28;20581;-74
2022/11/07 07:26:44;;;;;;;4.60;2.83;;;;;;;11.77;100.00;100264.88;5037586;28;20225;-74
2022/11/07 07:29:11;;;;;;;9.02;3.03;;;;;;;11.85;100.00;100271.63;5035975;28;20222;-75
2022/11/07 07:31:39;;;;;;;4.75;2.42;;;;;;;11.87;100.00;100271.53;5037029;28;20202;-74
2022/11/07 07:34:05;;;;;;;3.75;2.22;;;;;;;11.91;100.00;100269.59;5039368;28;20787;-74
2022/11/07 07:36:32;;;;;;;9.23;2.45;;;;;;;11.95;100.00;100274.75;5037594;28;20229;-73
2022/11/07 07:38:59;;;;;;;4.82;2.50;;;;;;;12.01;100.00;100278.94;5036598;28;20663;-74
2022/11/07 07:41:25;;;;;;;11.40;3.35;;;;;;;11.98;100.00;100271.00;5037691;28;20212;-74
2022/11/07 07:43:52;;;;;;;3.92;2.72;;;;;;;12.02;100.00;100280.69;5037006;28;20206;-74
2022/11/07 07:46:22;;;;;;;5.00;2.90;;;;;;;12.01;100.00;100269.03;5038062;28;20213;-74
2022/11/07 07:48:50;;;;;;;6.03;2.30;;;;;;;12.10;100.00;100273.06;5064601;22;20237;-76
2022/11/07 07:51:16;;;;;;;7.57;2.00;;;;;;;12.15;100.00;100268.28;5054219;28;20212;-75
2022/11/07 07:53:43;;;;;;;8.13;2.80;;;;;;;12.14;100.00;100271.91;5054729;28;20201;-76
2022/11/07 07:56:09;;;;;;;5.30;2.20;;;;;;;12.17;100.00;100270.91;5053978;28;20208;-76
2022/11/07 07:58:36;;;;;;;2.97;1.90;;;;;;;12.23;100.00;100276.84;5053743;28;20224;-75
2022/11/07 08:01:08;;;;;;;7.22;2.38;;;;;;;12.34;100.00;100278.06;5054200;28;20205;-75
2022/11/07 08:03:35;;;;;;;5.10;2.38;;;;;;;12.39;100.00;100281.38;5054310;28;20595;-75
2022/11/07 08:06:04;;;;;;;5.88;2.50;;;;;;;12.39;100.00;100271.47;5054750;28;20200;-75
2022/11/07 08:08:31;;;;;;;5.18;2.10;;;;;;;12.42;100.00;100273.13;5053472;28;20229;-75
2022/11/07 08:11:02;;;;;;;5.18;2.30;;;;;;;12.52;100.00;100277.06;5054847;28;20205;-75
2022/11/07 08:13:29;;;;;;;5.47;2.33;;;;;;;12.51;100.00;100269.91;5056680;28;20558;-75
2022/11/07 08:15:55;;;;;;;5.55;2.30;;;;;;;12.62;100.00;100278.31;5057241;28;20201;-76
2022/11/07 08:18:23;;;;;;;5.95;3.10;;;;;;;12.62;100.00;100272.91;5055087;28;20221;-75
2022/11/07 08:20:50;;;;;;;5.65;2.58;;;;;;;12.71;100.00;100279.63;5054809;28;20291;-74
2022/11/07 08:23:19;;;;;;;7.47;2.67;;;;;;;12.72;100.00;100274.09;5054041;28;20207;-74
2022/11/07 08:25:50;;;;;;;7.35;2.72;;;;;;;12.71;100.00;100287.72;5054267;28;20292;-75
2022/11/07 08:28:17;;;;;;;7.28;2.25;;;;;;;12.74;100.00;100290.25;5053451;28;20225;-75
2022/11/07 08:30:43;;;;;;;7.07;3.30;;;;;;;12.69;100.00;100282.41;5054286;28;20300;-76
2022/11/07 08:33:10;;;;;;;5.63;2.78;;;;;;;12.73;100.00;100283.09;5054271;28;20556;-76
2022/11/07 08:38:24;;;;;;;4.82;2.55;;;;;;;12.91;100.00;100276.66;5053408;28;20615;-75
2022/11/07 08:40:51;;;;;;;4.05;2.05;;;;;;;13.22;100.00;100272.16;5055448;28;20563;-75
2022/11/07 08:43:19;;;;;;;3.92;2.10;;;;;;;13.55;100.00;100269.34;5059807;28;20247;-75
2022/11/07 08:45:47;;;;;;;5.32;2.47;;;;;;;13.92;100.00;100272.50;5059905;28;20201;-76
2022/11/07 08:48:14;;;;;;;8.88;2.25;;;;;;;14.02;100.00;100269.25;5055788;28;20225;-75
2022/11/07 08:50:41;;;;;;;4.55;2.38;;;;;;;13.96;100.00;100262.38;5054410;28;20201;-75
2022/11/07 08:53:08;;;;;;;3.22;1.85;;;;;;;13.88;100.00;100268.25;5059662;28;20197;-74
2022/11/07 08:55:36;;;;;;;4.97;2.60;;;;;;;13.99;100.00;100273.00;5060302;28;20216;-74
2022/11/07 08:58:05;;;;;;;3.92;1.95;;;;;;;14.12;100.00;100274.00;5056635;28;20304;-76
2022/11/07 09:00:33;;;;;;;6.45;2.30;;;;;;;14.22;100.00;100278.84;5066095;28;20197;-74
2022/11/07 09:03:02;;;;;;;3.67;2.05;;;;;;;14.31;100.00;100284.56;5067268;28;20224;-74
2022/11/07 09:05:28;;;;;;;4.50;2.28;;;;;;;14.21;100.00;100283.38;5065247;28;20263;-74
2022/11/07 09:07:55;;;;;;;8.48;2.78;;;;;;;14.10;100.00;100294.88;5065001;28;20284;-75
2022/11/07 09:10:22;;;;;;;6.95;2.05;;;;;;;14.09;100.00;100286.88;5061344;28;20231;-75
2022/11/07 09:12:50;;;;;;;5.50;2.30;;;;;;;14.28;100.00;100295.56;5059716;28;20602;-75
2022/11/07 09:15:18;;;;;;;5.78;2.30;;;;;;;14.16;100.00;100283.69;5053832;28;20634;-74
2022/11/07 09:17:46;;;;;;;7.32;2.70;;;;;;;14.12;100.00;100283.97;5053625;28;20229;-75
2022/11/07 09:20:13;;;;;;;7.13;2.90;;;;;;;13.87;100.00;100290.88;5056279;28;20220;-76
2022/11/07 09:22:41;;;;;;;5.70;2.20;;;;;;;13.69;100.00;100289.28;5061342;28;20232;-75
2022/11/07 09:25:08;;;;;;;6.97;2.40;;;;;;;13.58;100.00;100295.34;5068062;28;20205;-75
2022/11/07 09:27:35;;;;;;;9.85;2.95;;;;;;;13.46;100.00;100290.66;5059920;28;20220;-74
2022/11/07 09:30:03;;;;;;;7.45;2.45;;;;;;;13.43;100.00;100289.03;5056191;28;20268;-76
2022/11/07 09:32:30;;;;;;;8.07;2.55;;;;;;;13.43;100.00;100291.72;5052967;28;20719;-74
2022/11/07 09:34:56;;;;;;;7.30;2.40;;;;;;;13.51;100.00;100283.16;5052630;28;20201;-75
2022/11/07 09:37:23;;;;;;;7.35;2.58;;;;;;;13.57;100.00;100296.31;5052827;28;20227;-75
2022/11/07 09:39:49;;;;;;;4.22;1.90;;;;;;;13.46;100.00;100301.50;5052338;28;20205;-76
2022/11/07 09:42:26;;;;;;;5.68;2.83;;;;;;;13.47;100.00;100304.09;5052811;28;20198;-75
2022/11/07 09:44:58;;;;;;;10.00;2.53;;;;;;;13.51;100.00;100300.25;5053471;28;20185;-76
2022/11/07 09:47:35;;;;;;;5.22;2.20;;;;;;;13.48;100.00;100310.41;5053844;28;20316;-74
2022/11/07 09:50:11;;;;;;;5.90;2.22;;;;;;;13.45;100.00;100308.72;5052626;28;20205;-76
2022/11/07 09:52:42;;;;;;;4.65;2.15;;;;;;;13.56;100.00;100308.94;5052483;28;20665;-76
2022/11/07 09:55:15;;;;;;;12.65;2.67;;;;;;;13.51;100.00;100308.34;5052993;28;20185;-75
2022/11/07 09:57:42;;;;;;;5.15;2.10;;;;;;;13.41;100.00;100312.59;5051601;28;20256;-76
2022/11/07 10:00:15;;;;;;;8.43;2.67;;;;;;;13.50;100.00;100297.63;5052745;28;20201;-75
2022/11/07 10:02:47;;;;;;;4.30;2.05;;;;;;;13.58;100.00;100302.59;5054698;28;20289;-77
2022/11/07 10:05:18;;;;;;;6.13;2.55;;;;;;;13.66;100.00;100305.72;5054270;28;20285;-76
2022/11/07 10:07:57;;;;;;;6.20;2.25;;;;;;;13.56;100.00;100313.50;5052547;28;20231;-75
2022/11/07 10:10:36;;;;;;;5.75;2.40;;;;;;;13.60;100.00;100322.31;5053321;28;20554;-75
2022/11/07 10:13:26;;;;;;;7.40;2.70;;;;;;;13.71;100.00;100319.84;5052455;28;20669;-75
2022/11/07 10:16:04;;;;;;;5.45;2.00;;;;;;;13.67;100.00;100308.31;5054757;28;20205;-75
2022/11/07 10:18:43;;;;;;;5.82;2.25;;;;;;;13.74;100.00;100311.53;5053650;28;20221;-76
2022/11/07 10:21:22;;;;;;;8.02;2.63;;;;;;;13.85;100.00;100310.91;5056783;28;20244;-76
2022/11/07 10:24:01;;;;;;;6.03;2.40;;;;;;;14.01;100.00;100306.28;5055615;28;20213;-75
2022/11/07 10:26:30;;;;;;;13.02;2.05;;;;;;;14.12;100.00;100308.34;5053549;28;20211;-75
2022/11/07 10:29:00;;;;;;;5.05;2.38;;;;;;;14.14;100.00;100311.81;5052832;28;20225;-75
2022/11/07 10:31:33;;;;;;;5.25;2.65;;;;;;;13.92;100.00;100312.25;5053256;28;20290;-75
2022/11/07 10:34:07;;;;;;;6.03;1.75;;;;;;;13.81;100.00;100312.91;5054257;28;20227;-75
2022/11/07 10:36:37;;;;;;;6.68;1.90;;;;;;;13.85;100.00;100317.16;5055024;28;20281;-74
2022/11/07 10:39:13;;;;;;;4.93;1.83;;;;;;;13.72;100.00;100319.72;5052864;28;20217;-75
2022/11/07 10:41:44;;;;;;;11.55;2.75;;;;;;;13.73;100.00;100317.94;5053087;28;20454;-75
2022/11/07 10:44:17;;;;;;;6.90;2.30;;;;;;;13.74;100.00;100319.66;5056712;28;20170;-74
2022/11/07 10:46:46;;;;;;;6.68;2.40;;;;;;;13.73;100.00;100310.66;5054275;28;20314;-75
2022/11/07 10:49:20;;;;;;;5.72;1.70;;;;;;;13.75;100.00;100316.88;5053339;28;20617;-76
2022/11/07 10:51:48;;;;;;;4.68;2.00;;;;;;;13.71;100.00;100322.56;5052482;28;20223;-75
2022/11/07 10:54:20;;;;;;;7.85;2.35;;;;;;;13.72;100.00;100319.72;5052677;28;20225;-76
2022/11/07 10:56:50;;;;;;;6.72;2.63;;;;;;;13.72;100.00;100317.03;5052029;28;20197;-75
2022/11/07 10:59:23;;;;;;;2.65;1.83;;;;;;;13.77;100.00;100327.59;5051786;28;20201;-76
2022/11/07 11:01:52;;;;;;;8.38;2.47;;;;;;;13.76;100.00;100315.88;5051978;28;20197;-75
2022/11/07 11:04:24;;;;;;;6.32;2.13;;;;;;;13.79;100.00;100314.81;5052052;28;20200;-74
2022/11/07 11:07:02;;;;;;;7.00;2.60;;;;;;;13.95;100.00;100322.88;5052247;28;20205;-75
2022/11/07 11:09:31;;;;;;;8.55;2.30;;;;;;;14.17;100.00;100303.50;5056648;28;20217;-75
2022/11/07 11:11:58;;;;;;;9.05;2.13;;;;;;;14.37;100.00;100315.81;5064049;28;20265;-73
2022/11/07 11:14:24;;;;;;;6.30;2.38;;;;;;;14.39;100.00;100312.03;5063235;28;20239;-75
2022/11/07 11:16:54;;;;;;;5.95;2.15;;;;;;;14.47;100.00;100305.25;5062216;28;20368;-74
2022/11/07 11:19:25;;;;;;;7.40;2.35;;;;;;;14.62;100.00;100288.06;5059629;28;20595;-73
2022/11/07 11:21:54;;;;;;;5.28;2.30;;;;;;;14.67;100.00;100299.47;5060310;28;20201;-76
2022/11/07 11:24:41;;;;;;;6.30;1.92;;;;;;;14.71;100.00;100294.75;5060933;28;20296;-75
2022/11/07 11:27:14;;;;;;;6.13;2.00;;;;;;;14.72;100.00;100299.19;5054360;28;20228;-76
2022/11/07 11:29:47;;;;;;;7.70;2.22;;;;;;;14.55;100.00;100297.56;5051817;28;20209;-75
2022/11/07 11:32:22;;;;;;;10.20;3.08;;;;;;;14.53;100.00;100302.16;5053704;28;20190;-75
2022/11/07 11:34:57;;;;;;;5.30;2.35;;;;;;;14.58;100.00;100303.66;5055444;28;20197;-74
2022/11/07 11:37:26;;;;;;;5.38;2.20;;;;;;;14.56;100.00;100293.88;5055289;28;20264;-74
2022/11/07 11:40:06;;;;;;;9.27;2.75;;;;;;;14.58;100.00;100290.13;5054504;28;20236;-75
2022/11/07 11:42:40;;;;;;;4.22;2.30;;;;;;;14.66;100.00;100284.19;5055010;28;20209;-75
2022/11/07 11:45:15;;;;;;;7.47;2.20;;;;;;;14.66;100.00;100289.63;5054834;28;20189;-76